Rechercher aéroport 
image banner adimage banner adimage banner ad
image banner ad

88CA - Regional Medical Center San Jose H2

Situé à San Jose, United States

ICAO - 88CA, IATA -

Données fournies par Airmate  

Information générale

Coordonnées: N37°21'41" W121°50'54"
Élévation : 120 feet MSL.
 
Voir autres Aéroports à California

Données opérationnelles

Special qualification required
Heure actuelle UTC:
Heure actuelle locale:
METAR: KRHV 251447Z 00000KT 10SM SKC 16/11 A2998
Voir NOTAMs / SUP AIP / TFR affectant cet aéroport [VIEW]
Fréquences de communication: [VIEW]

Pistes:

Coordonnées de l'aéroport

Adresse: San Jose United States

Vue satellite de 88CA